Time;durP1;ratioP1;P1;durP2;ratioP2;P2;SDS_P1;SDS_P2;PMS_P1;PMS_P2;Temp;Humidity;BMP_temperature;BMP_pressure;BME280_temperature;BME280_humidity;BME280_pressure;Samples;Min_cycle;Max_cycle;Signal;HPM_P1;HPM_P2
2023/03/08 00:00:32;;;;;;;1999.90;999.90;;;5.40;94.40;;;;;;5056546;28;20030;-75
2023/03/08 00:02:58;;;;;;;1999.90;999.90;;;5.40;94.10;;;;;;5056325;28;20037;-76
2023/03/08 00:05:24;;;;;;;1999.90;999.90;;;5.50;94.50;;;;;;5056162;28;20056;-75
2023/03/08 00:07:53;;;;;;;1999.90;999.90;;;5.40;94.20;;;;;;5056374;28;20076;-76
2023/03/08 00:10:19;;;;;;;1999.90;999.90;;;5.40;94.30;;;;;;5055993;28;20156;-76
2023/03/08 00:12:45;;;;;;;1999.90;999.90;;;5.40;94.10;;;;;;5055757;28;20634;-76
2023/03/08 00:15:10;;;;;;;1999.90;999.90;;;5.40;94.20;;;;;;5054610;28;20144;-76
2023/03/08 00:17:37;;;;;;;1999.90;999.90;;;5.50;94.20;;;;;;5054781;28;20044;-76
2023/03/08 00:20:04;;;;;;;1999.90;999.90;;;5.50;94.50;;;;;;5056207;28;20037;-76
2023/03/08 00:22:35;;;;;;;1999.90;999.90;;;5.50;94.30;;;;;;5054624;28;20033;-75
2023/03/08 00:25:00;;;;;;;1999.90;999.90;;;5.50;94.10;;;;;;5054471;28;20029;-75
2023/03/08 00:27:26;;;;;;;1999.90;999.90;;;5.50;94.60;;;;;;5055979;28;20384;-75
2023/03/08 00:29:54;;;;;;;1999.90;999.90;;;5.50;94.50;;;;;;5054567;28;20032;-76
2023/03/08 00:32:19;;;;;;;1999.90;999.90;;;5.50;94.10;;;;;;5053959;28;20084;-76
2023/03/08 00:34:45;;;;;;;1999.90;999.90;;;5.50;94.60;;;;;;5054273;28;20542;-76
2023/03/08 00:37:12;;;;;;;1999.90;999.90;;;5.50;94.50;;;;;;5054605;28;20034;-75
2023/03/08 00:39:38;;;;;;;1999.90;999.90;;;5.40;95.30;;;;;;5055988;28;20411;-75
2023/03/08 00:42:04;;;;;;;1999.90;999.90;;;5.40;95.00;;;;;;5054047;28;20510;-75
2023/03/08 00:44:29;;;;;;;1999.90;999.90;;;5.40;94.80;;;;;;5055392;28;20045;-75
2023/03/08 00:46:55;;;;;;;1999.90;999.90;;;5.30;95.10;;;;;;5055829;28;20049;-75
2023/03/08 00:49:21;;;;;;;1999.90;999.90;;;5.30;95.20;;;;;;5055932;28;20483;-75
2023/03/08 00:51:47;;;;;;;1999.90;999.90;;;5.30;95.20;;;;;;5055564;28;20040;-76
2023/03/08 00:54:13;;;;;;;1999.90;999.90;;;5.30;95.20;;;;;;5055541;28;20491;-76
2023/03/08 00:56:39;;;;;;;1999.90;999.90;;;5.30;95.10;;;;;;5055506;28;20066;-75
2023/03/08 00:59:04;;;;;;;1999.90;999.90;;;5.40;94.90;;;;;;5054086;28;20029;-75
2023/03/08 01:01:30;;;;;;;1999.90;999.90;;;5.40;94.90;;;;;;5055422;28;20042;-75
2023/03/08 01:03:55;;;;;;;1999.90;999.90;;;5.30;95.00;;;;;;5055342;28;20057;-75
2023/03/08 01:06:21;;;;;;;1999.90;999.90;;;5.30;95.10;;;;;;5055538;28;20056;-75
2023/03/08 01:08:47;;;;;;;1999.90;999.90;;;5.30;95.00;;;;;;5055439;28;20034;-75
2023/03/08 01:11:24;;;;;;;1999.90;999.90;;;5.20;95.00;;;;;;5055081;28;20037;-76
2023/03/08 01:13:52;;;;;;;1999.90;999.90;;;5.00;95.10;;;;;;5055356;28;20036;-75
2023/03/08 01:16:23;;;;;;;1999.90;999.90;;;4.90;95.70;;;;;;5053867;28;20492;-75
2023/03/08 01:18:50;;;;;;;1999.90;999.90;;;4.80;95.90;;;;;;5055558;28;20143;-75
2023/03/08 01:21:16;;;;;;;1999.90;999.90;;;4.70;96.10;;;;;;5053803;28;20079;-77
2023/03/08 01:23:42;;;;;;;1999.90;999.90;;;4.70;96.20;;;;;;5053111;28;20041;-76
2023/03/08 01:26:11;;;;;;;1999.90;999.90;;;4.70;96.10;;;;;;5053649;28;20026;-75
2023/03/08 01:28:37;;;;;;;1999.90;999.90;;;4.60;96.20;;;;;;5053800;28;20072;-75
2023/03/08 01:31:14;;;;;;;1999.90;999.90;;;4.50;96.40;;;;;;5054540;28;20057;-75
2023/03/08 01:33:41;;;;;;;1999.90;999.90;;;4.40;96.80;;;;;;5053767;28;20060;-75
2023/03/08 01:36:08;;;;;;;1999.90;999.90;;;4.40;96.80;;;;;;5055123;28;20446;-75
2023/03/08 01:38:34;;;;;;;1999.90;999.90;;;4.40;97.00;;;;;;5055192;28;20068;-75
2023/03/08 01:41:01;;;;;;;1999.90;999.90;;;4.30;96.90;;;;;;5054682;28;20072;-75
2023/03/08 01:43:30;;;;;;;1999.90;999.90;;;4.30;97.20;;;;;;5055106;28;20040;-75
2023/03/08 01:46:24;;;;;;;1999.90;999.90;;;4.30;97.00;;;;;;5054723;28;20042;-75
2023/03/08 01:49:13;;;;;;;1999.90;999.90;;;4.20;97.30;;;;;;5054815;28;20043;-75
2023/03/08 01:51:43;;;;;;;1999.90;999.90;;;4.20;97.40;;;;;;5049472;28;20045;-75
2023/03/08 01:54:33;;;;;;;1999.90;999.90;;;4.20;97.60;;;;;;5054916;28;20064;-76
2023/03/08 01:57:04;;;;;;;1999.90;999.90;;;4.20;97.50;;;;;;5054952;28;20484;-75
2023/03/08 01:59:33;;;;;;;1999.90;999.90;;;4.30;97.50;;;;;;5054606;28;20064;-75
2023/03/08 02:02:09;;;;;;;1999.90;999.90;;;4.30;97.60;;;;;;5052961;28;20026;-77
2023/03/08 02:04:35;;;;;;;1999.90;999.90;;;4.40;97.30;;;;;;5054457;28;20061;-76
2023/03/08 02:07:00;;;;;;;1999.90;999.90;;;4.20;97.60;;;;;;5053158;28;20519;-76
2023/03/08 02:09:26;;;;;;;1999.90;999.90;;;4.10;97.50;;;;;;5054739;28;20076;-77
2023/03/08 02:11:57;;;;;;;1999.90;999.90;;;4.00;98.00;;;;;;5054534;28;20458;-76
2023/03/08 02:14:25;;;;;;;1999.90;999.90;;;3.90;98.10;;;;;;5054328;28;20033;-77
2023/03/08 02:16:50;;;;;;;1999.90;999.90;;;3.80;98.40;;;;;;5053114;28;20033;-76
2023/03/08 02:19:52;;;;;;;1999.90;999.90;;;3.60;98.40;;;;;;5054723;28;20479;-77
2023/03/08 02:22:19;;;;;;;1999.90;999.90;;;3.40;98.70;;;;;;5054328;28;20037;-77
2023/03/08 02:25:16;;;;;;;1999.90;999.90;;;3.20;99.00;;;;;;5053918;28;20068;-76
2023/03/08 02:27:42;;;;;;;1999.90;999.90;;;3.10;99.10;;;;;;5054399;28;20037;-76
2023/03/08 02:30:10;;;;;;;1999.90;999.90;;;3.00;99.90;;;;;;5054465;28;20030;-76
2023/03/08 02:32:36;;;;;;;1999.90;999.90;;;2.90;99.70;;;;;;5053936;28;20399;-76
2023/03/08 02:35:01;;;;;;;1999.90;999.90;;;3.10;99.20;;;;;;5053931;28;20037;-76
2023/03/08 02:37:27;;;;;;;1999.90;999.90;;;3.20;98.90;;;;;;5056570;28;20041;-76
2023/03/08 02:39:52;;;;;;;1999.90;999.90;;;3.40;98.70;;;;;;5057826;28;20033;-76
2023/03/08 02:42:18;;;;;;;1999.90;999.90;;;3.50;98.30;;;;;;5057628;28;20039;-76
2023/03/08 02:44:43;;;;;;;1999.90;999.90;;;3.40;98.40;;;;;;5057521;28;20057;-76
2023/03/08 02:47:09;;;;;;;1999.90;999.90;;;3.40;98.50;;;;;;5057739;28;20124;-76
2023/03/08 02:49:35;;;;;;;1999.90;999.90;;;3.30;98.40;;;;;;5057796;28;20499;-76
2023/03/08 02:52:00;;;;;;;1999.90;999.90;;;3.10;98.70;;;;;;5057517;28;20049;-76
2023/03/08 02:54:26;;;;;;;1999.90;999.90;;;3.00;99.10;;;;;;5057565;28;20038;-76
2023/03/08 02:56:57;;;;;;;1999.90;999.90;;;3.10;99.40;;;;;;5057692;28;20037;-76
2023/03/08 02:59:23;;;;;;;1999.90;999.90;;;3.10;99.10;;;;;;5057385;28;20828;-76
2023/03/08 03:01:48;;;;;;;1999.90;999.90;;;3.20;99.20;;;;;;5057149;28;20034;-76
2023/03/08 03:04:14;;;;;;;1999.90;999.90;;;3.10;99.20;;;;;;5057335;28;20506;-76
2023/03/08 03:06:48;;;;;;;1999.90;999.90;;;3.20;99.10;;;;;;5057475;28;20509;-76
2023/03/08 03:09:17;;;;;;;1999.90;999.90;;;3.20;99.10;;;;;;5057098;28;20041;-77
2023/03/08 03:11:42;;;;;;;1999.90;999.90;;;3.20;99.20;;;;;;5057154;28;20037;-76
2023/03/08 03:14:08;;;;;;;1999.90;999.90;;;3.30;99.00;;;;;;5055492;28;20391;-76
2023/03/08 03:16:35;;;;;;;1999.90;999.90;;;3.30;98.90;;;;;;5057196;28;20495;-76
2023/03/08 03:19:00;;;;;;;1999.90;999.90;;;3.40;99.00;;;;;;5057094;28;20503;-76
2023/03/08 03:21:26;;;;;;;1999.90;999.90;;;3.40;99.10;;;;;;5057177;28;20088;-76
2023/03/08 03:23:54;;;;;;;1999.90;999.90;;;3.40;98.90;;;;;;5055635;28;20033;-76
2023/03/08 03:26:22;;;;;;;1999.90;999.90;;;3.50;99.10;;;;;;5057054;28;20033;-76
2023/03/08 03:28:48;;;;;;;1999.90;999.90;;;3.50;99.20;;;;;;5056945;28;20048;-76
2023/03/08 03:31:16;;;;;;;1999.90;999.90;;;3.50;99.10;;;;;;5055083;28;20033;-76
2023/03/08 03:33:43;;;;;;;1999.90;999.90;;;3.50;98.90;;;;;;5056933;28;20037;-76
2023/03/08 03:36:12;;;;;;;1999.90;999.90;;;3.60;99.00;;;;;;5056874;28;20102;-76
2023/03/08 03:38:37;;;;;;;1999.90;999.90;;;3.50;99.30;;;;;;5056876;28;20037;-76
2023/03/08 03:41:05;;;;;;;1999.90;999.90;;;3.60;99.30;;;;;;5056756;28;20409;-76
2023/03/08 03:43:31;;;;;;;1999.90;999.90;;;3.60;99.10;;;;;;5056952;28;20034;-76
2023/03/08 03:45:58;;;;;;;1999.90;999.90;;;3.60;99.10;;;;;;5056132;28;20038;-76
2023/03/08 03:48:24;;;;;;;1999.90;999.90;;;3.60;99.20;;;;;;5055464;28;20037;-76
2023/03/08 03:50:55;;;;;;;1999.90;999.90;;;3.70;99.10;;;;;;5057011;28;20021;-76
2023/03/08 03:53:20;;;;;;;1999.90;999.90;;;3.70;99.30;;;;;;5056637;28;20395;-76
2023/03/08 03:55:46;;;;;;;1999.90;999.90;;;3.70;99.10;;;;;;5056249;28;20038;-76
2023/03/08 03:58:11;;;;;;;1999.90;999.90;;;3.70;99.20;;;;;;5055022;28;20042;-76
2023/03/08 04:00:37;;;;;;;1999.90;999.90;;;3.70;99.10;;;;;;5056799;28;20384;-76
2023/03/08 04:03:02;;;;;;;1999.90;999.90;;;3.70;99.20;;;;;;5056107;28;20099;-76
2023/03/08 04:05:28;;;;;;;1999.90;999.90;;;3.70;99.20;;;;;;5054799;28;20117;-76
2023/03/08 04:07:53;;;;;;;1999.90;999.90;;;3.70;99.10;;;;;;5056464;28;20514;-76
2023/03/08 04:10:19;;;;;;;1999.90;999.90;;;3.70;99.10;;;;;;5056321;28;20041;-76
2023/03/08 04:12:48;;;;;;;1999.90;999.90;;;3.70;99.10;;;;;;5056199;28;20061;-76
2023/03/08 04:15:13;;;;;;;1999.90;999.90;;;3.70;99.20;;;;;;5055893;28;20034;-76
2023/03/08 04:17:39;;;;;;;1999.90;999.90;;;3.70;99.50;;;;;;5056243;28;20029;-76
2023/03/08 04:20:05;;;;;;;1999.90;999.90;;;3.70;99.10;;;;;;5056256;28;20042;-76
2023/03/08 04:22:31;;;;;;;1999.90;999.90;;;3.70;99.60;;;;;;5054408;28;20033;-76
2023/03/08 04:24:56;;;;;;;1999.90;999.90;;;3.70;99.30;;;;;;5055909;28;20109;-76
2023/03/08 04:27:22;;;;;;;1999.90;999.90;;;3.70;99.40;;;;;;5055959;28;20045;-77
2023/03/08 04:29:48;;;;;;;1999.90;999.90;;;3.70;98.90;;;;;;5056157;28;20033;-76
2023/03/08 04:32:16;;;;;;;1999.90;999.90;;;3.70;98.90;;;;;;5056204;28;20060;-77
2023/03/08 04:34:44;;;;;;;1999.90;999.90;;;3.80;98.90;;;;;;5055638;28;20039;-76
2023/03/08 04:37:10;;;;;;;1999.90;999.90;;;3.80;99.20;;;;;;5055898;28;20418;-77
2023/03/08 04:39:36;;;;;;;1999.90;999.90;;;3.70;99.20;;;;;;5056018;28;20037;-77
2023/03/08 04:42:01;;;;;;;1999.90;999.90;;;3.70;99.50;;;;;;5055617;28;20492;-76
2023/03/08 04:44:27;;;;;;;1999.90;999.90;;;3.70;99.20;;;;;;5055507;28;20037;-76
2023/03/08 04:46:55;;;;;;;1999.90;999.90;;;3.70;99.10;;;;;;5054252;28;20043;-76
2023/03/08 04:49:21;;;;;;;1999.90;999.90;;;3.70;99.20;;;;;;5054264;28;20080;-76
2023/03/08 04:51:47;;;;;;;1999.90;999.90;;;3.70;99.20;;;;;;5055540;28;20033;-76
2023/03/08 04:54:12;;;;;;;1999.90;999.90;;;3.70;98.90;;;;;;5055602;28;20034;-76
2023/03/08 04:56:38;;;;;;;1999.90;999.90;;;3.70;99.30;;;;;;5055420;28;20033;-76
2023/03/08 04:59:03;;;;;;;1999.90;999.90;;;3.80;99.10;;;;;;5053567;28;20395;-76
2023/03/08 05:01:29;;;;;;;1999.90;999.90;;;3.80;99.30;;;;;;5055114;28;20115;-76
2023/03/08 05:03:55;;;;;;;1999.90;999.90;;;3.80;99.30;;;;;;5053901;28;20037;-76
2023/03/08 05:06:22;;;;;;;1999.90;999.90;;;3.80;98.90;;;;;;5055769;28;20036;-76
2023/03/08 05:08:48;;;;;;;1999.90;999.90;;;3.80;98.90;;;;;;5055280;28;20622;-76
2023/03/08 05:11:20;;;;;;;1999.90;999.90;;;3.90;99.10;;;;;;5055387;28;20042;-76
2023/03/08 05:13:51;;;;;;;1999.90;999.90;;;3.90;98.90;;;;;;5055155;28;20048;-75
2023/03/08 05:16:17;;;;;;;1999.90;999.90;;;3.90;98.60;;;;;;5055599;28;20570;-75
2023/03/08 05:18:43;;;;;;;1999.90;999.90;;;3.90;98.60;;;;;;5053919;28;20033;-75
2023/03/08 05:21:14;;;;;;;1999.90;999.90;;;3.90;98.90;;;;;;5055290;28;20160;-76
2023/03/08 05:23:40;;;;;;;1999.90;999.90;;;3.90;99.10;;;;;;5055323;28;20038;-76
2023/03/08 05:26:14;;;;;;;1999.90;999.90;;;3.80;98.90;;;;;;5053681;28;20561;-76
2023/03/08 05:28:40;;;;;;;1999.90;999.90;;;3.80;98.90;;;;;;5053661;28;20096;-76
2023/03/08 05:31:14;;;;;;;1999.90;999.90;;;3.80;98.70;;;;;;5054906;28;20030;-76
2023/03/08 05:33:41;;;;;;;1999.90;999.90;;;3.80;98.70;;;;;;5053759;28;20060;-75
2023/03/08 05:36:10;;;;;;;1999.90;999.90;;;3.90;98.80;;;;;;5053556;28;20415;-76
2023/03/08 05:38:35;;;;;;;1999.90;999.90;;;3.90;98.70;;;;;;5054084;28;20029;-76
2023/03/08 05:41:03;;;;;;;1999.90;999.90;;;3.90;98.70;;;;;;5054493;28;20383;-76
2023/03/08 05:43:28;;;;;;;1999.90;999.90;;;4.00;98.50;;;;;;5054088;28;20041;-76
2023/03/08 05:45:56;;;;;;;1999.90;999.90;;;4.00;98.20;;;;;;5054636;28;20029;-76
2023/03/08 05:48:24;;;;;;;1999.90;999.90;;;4.10;98.10;;;;;;5052232;28;20037;-76
2023/03/08 05:50:50;;;;;;;1999.90;999.90;;;4.10;98.20;;;;;;5054804;28;20026;-77
2023/03/08 05:53:16;;;;;;;1999.90;999.90;;;4.10;98.10;;;;;;5052908;28;20034;-76
2023/03/08 05:55:41;;;;;;;1999.90;999.90;;;4.20;98.00;;;;;;5053027;28;20065;-77
2023/03/08 05:58:07;;;;;;;1999.90;999.90;;;4.20;97.90;;;;;;5054015;28;20045;-77
2023/03/08 06:00:32;;;;;;;1999.90;999.90;;;4.20;97.80;;;;;;5053324;28;20071;-76
2023/03/08 06:03:02;;;;;;;1999.90;999.90;;;4.30;98.10;;;;;;5053041;28;20037;-76
2023/03/08 06:05:28;;;;;;;1999.90;999.90;;;4.20;98.20;;;;;;5054424;28;20529;-76
2023/03/08 06:07:54;;;;;;;1999.90;999.90;;;4.20;98.00;;;;;;5054716;28;20096;-76
2023/03/08 06:10:19;;;;;;;1999.90;999.90;;;4.30;97.90;;;;;;5052840;28;20065;-76
2023/03/08 06:12:45;;;;;;;1999.90;999.90;;;4.30;98.10;;;;;;5055314;28;20088;-77
2023/03/08 06:15:11;;;;;;;1999.90;999.90;;;4.20;98.10;;;;;;5052948;28;20057;-76
2023/03/08 06:17:38;;;;;;;1999.90;999.90;;;4.30;98.00;;;;;;5054731;28;20057;-77
2023/03/08 06:20:04;;;;;;;1999.90;999.90;;;4.30;97.90;;;;;;5052995;28;20041;-77
2023/03/08 06:22:29;;;;;;;1999.90;999.90;;;4.40;98.10;;;;;;5054146;28;20529;-78
2023/03/08 06:24:55;;;;;;;1999.90;999.90;;;4.40;97.70;;;;;;5054506;28;20042;-76
2023/03/08 06:27:20;;;;;;;1999.90;999.90;;;4.40;98.10;;;;;;5052685;28;20113;-77
2023/03/08 06:29:47;;;;;;;1999.90;999.90;;;4.40;97.80;;;;;;5052596;28;20532;-78
2023/03/08 06:32:12;;;;;;;1999.90;999.90;;;4.40;98.00;;;;;;5053964;28;20044;-77
2023/03/08 06:34:38;;;;;;;1999.90;999.90;;;4.50;97.60;;;;;;5053970;28;20040;-73
2023/03/08 06:37:03;;;;;;;1999.90;999.90;;;4.50;97.60;;;;;;5053006;28;20048;-76
2023/03/08 06:39:30;;;;;;;1999.90;999.90;;;4.50;97.20;;;;;;5054544;28;20384;-77
2023/03/08 06:41:56;;;;;;;1999.90;999.90;;;4.60;97.40;;;;;;5054274;28;20034;-76
2023/03/08 06:44:22;;;;;;;1999.90;999.90;;;4.60;97.50;;;;;;5052585;28;20040;-77
2023/03/08 06:46:47;;;;;;;1999.90;999.90;;;4.60;97.60;;;;;;5053664;28;20399;-78
2023/03/08 06:49:13;;;;;;;1999.90;999.90;;;4.60;97.30;;;;;;5052739;28;20532;-75
2023/03/08 06:51:39;;;;;;;1999.90;999.90;;;4.70;97.30;;;;;;5053995;28;20113;-74
2023/03/08 06:54:04;;;;;;;1999.90;999.90;;;4.70;97.60;;;;;;5051887;28;20091;-75
2023/03/08 06:56:30;;;;;;;1999.90;999.90;;;4.70;97.30;;;;;;5053457;28;20042;-75
2023/03/08 06:58:55;;;;;;;1999.90;999.90;;;4.80;97.20;;;;;;5052965;28;20041;-75
2023/03/08 07:01:21;;;;;;;1999.90;999.90;;;4.80;97.60;;;;;;5052359;28;20044;-75
2023/03/08 07:03:47;;;;;;;1999.90;999.90;;;4.90;97.50;;;;;;5053889;28;20427;-76
2023/03/08 07:06:13;;;;;;;1999.90;999.90;;;5.00;97.70;;;;;;5054021;28;20117;-76
2023/03/08 07:08:39;;;;;;;1999.90;999.90;;;5.10;98.40;;;;;;5054201;28;20041;-76
2023/03/08 07:11:07;;;;;;;1999.90;999.90;;;5.10;98.50;;;;;;5054011;28;20496;-75
2023/03/08 07:13:33;;;;;;;1999.90;999.90;;;5.30;97.70;;;;;;5053899;28;20029;-76
2023/03/08 07:15:58;;;;;;;1999.90;999.90;;;5.40;98.40;;;;;;5053875;28;20476;-75
2023/03/08 07:18:24;;;;;;;1999.90;999.90;;;5.40;98.80;;;;;;5052466;28;20041;-76
2023/03/08 07:20:55;;;;;;;1999.90;999.90;;;5.40;98.60;;;;;;5053846;28;20041;-75
2023/03/08 07:23:21;;;;;;;1999.90;999.90;;;5.30;98.10;;;;;;5055838;28;20108;-76
2023/03/08 07:25:47;;;;;;;1999.90;999.90;;;5.20;98.00;;;;;;5056843;28;20133;-76
2023/03/08 07:28:12;;;;;;;1999.90;999.90;;;5.20;98.90;;;;;;5057151;28;20585;-77
2023/03/08 07:30:38;;;;;;;1999.90;999.90;;;5.10;98.70;;;;;;5057779;28;20519;-76
2023/03/08 07:33:04;;;;;;;1999.90;999.90;;;5.10;98.70;;;;;;5055773;28;20514;-76
2023/03/08 07:35:29;;;;;;;1999.90;999.90;;;5.10;99.00;;;;;;5056845;28;20109;-77
2023/03/08 07:37:55;;;;;;;1999.90;999.90;;;5.10;99.40;;;;;;5057064;28;20561;-76
2023/03/08 07:40:20;;;;;;;1999.90;999.90;;;5.00;99.50;;;;;;5056776;28;20068;-76
2023/03/08 07:42:46;;;;;;;1999.90;999.90;;;5.00;99.40;;;;;;5056819;28;20037;-76
2023/03/08 07:45:13;;;;;;;1999.90;999.90;;;5.00;99.90;;;;;;5056709;28;20033;-76
2023/03/08 07:47:39;;;;;;;1999.90;999.90;;;5.00;99.90;;;;;;5056887;28;20080;-76
2023/03/08 07:50:05;;;;;;;1999.90;999.90;;;5.00;99.90;;;;;;5056742;28;20443;-76
2023/03/08 07:52:31;;;;;;;1999.90;999.90;;;4.90;99.90;;;;;;5055017;28;20498;-76
2023/03/08 07:54:57;;;;;;;1999.90;999.90;;;4.80;99.90;;;;;;5055035;28;20029;-77
2023/03/08 07:57:23;;;;;;;1999.90;999.90;;;4.70;99.90;;;;;;5056778;28;20091;-76
2023/03/08 07:59:51;;;;;;;1999.90;999.90;;;4.40;99.90;;;;;;5056771;28;20063;-77
2023/03/08 08:02:17;;;;;;;1999.90;999.90;;;4.30;99.90;;;;;;5055231;28;20041;-75
2023/03/08 08:04:43;;;;;;;1999.90;999.90;;;4.20;99.90;;;;;;5055373;28;20033;-75
2023/03/08 08:07:14;;;;;;;1999.90;999.90;;;4.00;99.90;;;;;;5056901;28;20046;-76
2023/03/08 08:09:43;;;;;;;1999.90;999.90;;;3.70;99.90;;;;;;5056276;28;20112;-77
2023/03/08 08:12:09;;;;;;;1999.90;999.90;;;3.50;99.90;;;;;;5054067;28;20033;-77
2023/03/08 08:14:34;;;;;;;1999.90;999.90;;;3.40;99.90;;;;;;5056234;28;20025;-77
2023/03/08 08:17:00;;;;;;;1999.90;999.90;;;3.20;99.90;;;;;;5056493;28;20034;-76
2023/03/08 08:19:26;;;;;;;1999.90;999.90;;;3.00;99.90;;;;;;5056395;28;20041;-76
2023/03/08 08:21:51;;;;;;;1999.90;999.90;;;2.90;99.90;;;;;;5056212;28;20041;-76
2023/03/08 08:24:17;;;;;;;1999.90;999.90;;;2.80;99.90;;;;;;5056189;28;20029;-77
2023/03/08 08:26:42;;;;;;;1999.90;999.90;;;2.70;99.90;;;;;;5056251;28;20043;-77
2023/03/08 08:29:08;;;;;;;1999.90;999.90;;;2.70;99.90;;;;;;5056142;28;20088;-77
2023/03/08 08:31:33;;;;;;;1999.90;999.90;;;2.80;99.90;;;;;;5055765;28;20044;-77
2023/03/08 08:33:59;;;;;;;1999.90;999.90;;;2.80;99.90;;;;;;5056088;28;20034;-78
2023/03/08 08:36:25;;;;;;;1999.90;999.90;;;3.00;99.90;;;;;;5054742;28;20079;-77
2023/03/08 08:38:52;;;;;;;1999.90;999.90;;;2.90;99.90;;;;;;5054925;28;20511;-77
2023/03/08 08:41:20;;;;;;;1999.90;999.90;;;2.90;99.90;;;;;;5055599;28;20029;-78
2023/03/08 08:43:46;;;;;;;1999.90;999.90;;;3.00;99.90;;;;;;5054226;28;20038;-78
2023/03/08 08:46:13;;;;;;;1999.90;999.90;;;3.00;99.90;;;;;;5054504;28;20030;-78
2023/03/08 08:48:39;;;;;;;1999.90;999.90;;;3.00;99.90;;;;;;5054287;28;20064;-78
2023/03/08 08:51:06;;;;;;;1999.90;999.90;;;3.10;99.90;;;;;;5055718;28;20551;-77
2023/03/08 08:53:32;;;;;;;1999.90;999.90;;;3.20;99.90;;;;;;5055765;28;20430;-78
2023/03/08 08:55:57;;;;;;;1999.90;999.90;;;3.20;99.90;;;;;;5054491;28;20037;-80
2023/03/08 08:58:24;;;;;;;1999.90;999.90;;;3.10;99.90;;;;;;5056098;28;20041;-80
2023/03/08 09:00:49;;;;;;;1999.90;999.90;;;3.20;99.90;;;;;;5056686;28;20025;-78
2023/03/08 09:03:15;;;;;;;1999.90;999.90;;;3.20;99.90;;;;;;5055246;28;20041;-78
2023/03/08 09:05:43;;;;;;;1999.90;999.90;;;3.20;99.90;;;;;;5054695;28;20113;-82
2023/03/08 09:08:10;;;;;;;1999.90;999.90;;;3.10;99.90;;;;;;5055976;28;20073;-79
2023/03/08 09:10:37;;;;;;;1999.90;999.90;;;3.20;99.90;;;;;;5055494;28;20499;-79
2023/03/08 09:13:03;;;;;;;1999.90;999.90;;;3.10;99.90;;;;;;5054795;28;20037;-80
2023/03/08 09:15:29;;;;;;;1999.90;999.90;;;3.30;99.90;;;;;;5057119;28;20103;-78
2023/03/08 09:17:54;;;;;;;1999.90;999.90;;;3.40;99.90;;;;;;5057036;28;20854;-78
2023/03/08 09:20:20;;;;;;;1999.90;999.90;;;3.50;99.90;;;;;;5055977;28;20493;-79
2023/03/08 09:22:46;;;;;;;1999.90;999.90;;;3.60;99.90;;;;;;5054448;28;20025;-80
2023/03/08 09:25:12;;;;;;;1999.90;999.90;;;3.60;99.90;;;;;;5054082;28;20069;-77
2023/03/08 09:27:39;;;;;;;1999.90;999.90;;;3.60;99.90;;;;;;5055347;28;20507;-77
2023/03/08 09:30:10;;;;;;;1999.90;999.90;;;3.60;99.90;;;;;;5055187;28;20136;-77
2023/03/08 09:32:35;;;;;;;1999.90;999.90;;;3.80;99.90;;;;;;5053407;28;20048;-77
2023/03/08 09:35:01;;;;;;;1999.90;999.90;;;3.90;99.90;;;;;;5053610;28;20052;-77
2023/03/08 09:37:26;;;;;;;1999.90;999.90;;;3.80;99.90;;;;;;5053781;28;20120;-76
2023/03/08 09:39:53;;;;;;;1999.90;999.90;;;3.90;99.90;;;;;;5055103;28;20029;-78
2023/03/08 09:42:26;;;;;;;1999.90;999.90;;;3.90;99.90;;;;;;5055266;28;20041;-78
2023/03/08 09:45:25;;;;;;;1999.90;999.90;;;4.10;99.90;;;;;;5052822;28;20458;-78
2023/03/08 09:48:03;;;;;;;1999.90;999.90;;;4.10;99.90;;;;;;5054850;28;20033;-78
2023/03/08 09:50:31;;;;;;;1999.90;999.90;;;4.10;99.90;;;;;;5054879;28;20484;-77
2023/03/08 09:53:04;;;;;;;1999.90;999.90;;;4.10;99.90;;;;;;5054733;28;20044;-77
2023/03/08 09:55:33;;;;;;;1999.90;999.90;;;4.20;99.90;;;;;;5054472;28;20037;-77
2023/03/08 09:58:30;;;;;;;1999.90;999.90;;;4.30;99.90;;;;;;5054829;28;20591;-77
2023/03/08 10:01:19;;;;;;;1999.90;999.90;;;4.30;99.90;;;;;;5053267;28;20538;-78
2023/03/08 10:04:13;;;;;;;1999.90;999.90;;;4.30;99.90;;;;;;5046488;28;20051;-78
2023/03/08 10:06:58;;;;;;;1999.90;999.90;;;4.30;99.90;;;;;;5054928;28;20099;-78
2023/03/08 10:09:27;;;;;;;1999.90;999.90;;;4.40;99.90;;;;;;5054859;28;20042;-78
2023/03/08 10:11:58;;;;;;;1999.90;999.90;;;4.50;99.90;;;;;;5054558;28;20084;-76
2023/03/08 10:14:26;;;;;;;1999.90;999.90;;;4.60;99.90;;;;;;5052909;28;20112;-77
2023/03/08 10:16:59;;;;;;;1999.90;999.90;;;4.70;99.90;;;;;;5054671;28;20037;-77
2023/03/08 10:19:40;;;;;;;1999.90;999.90;;;4.80;99.90;;;;;;5054743;28;20030;-78
2023/03/08 10:22:14;;;;;;;1999.90;999.90;;;4.90;99.90;;;;;;5035160;28;20116;-77
2023/03/08 10:24:51;;;;;;;1999.90;999.90;;;4.90;99.90;;;;;;5033109;28;20038;-78
2023/03/08 10:27:30;;;;;;;1999.90;999.90;;;4.90;99.90;;;;;;5033532;28;20537;-79
2023/03/08 10:29:58;;;;;;;1999.90;999.90;;;4.80;99.90;;;;;;5042546;28;20041;-78
2023/03/08 10:32:25;;;;;;;1999.90;999.90;;;4.90;99.90;;;;;;5054339;28;20828;-78
2023/03/08 10:34:51;;;;;;;1999.90;999.90;;;5.00;99.90;;;;;;5055851;28;20120;-83
2023/03/08 10:37:19;;;;;;;1999.90;999.90;;;5.00;99.90;;;;;;5054860;28;20132;-83
2023/03/08 10:39:53;;;;;;;1999.90;999.90;;;4.90;99.90;;;;;;5055145;28;20108;-80
2023/03/08 10:42:21;;;;;;;1999.90;999.90;;;5.00;99.90;;;;;;5059079;28;20034;-77
2023/03/08 10:45:00;;;;;;;1999.90;999.90;;;5.00;99.90;;;;;;5055822;28;20866;-78
2023/03/08 10:47:31;;;;;;;1999.90;999.90;;;5.00;99.90;;;;;;5059073;28;20042;-78
2023/03/08 10:50:18;;;;;;;1999.90;999.90;;;5.20;99.90;;;;;;5055392;28;20038;-78
2023/03/08 10:52:45;;;;;;;1999.90;999.90;;;5.30;99.90;;;;;;5056498;28;20037;-82
2023/03/08 10:55:17;;;;;;;1999.90;999.90;;;5.30;99.90;;;;;;5056004;28;20124;-77
2023/03/08 10:57:52;;;;;;;1999.90;999.90;;;5.20;99.90;;;;;;5059022;28;20566;-77
2023/03/08 11:00:34;;;;;;;1999.90;999.90;;;5.20;99.90;;;;;;5057695;28;20030;-77
2023/03/08 11:03:18;;;;;;;1999.90;999.90;;;5.30;99.90;;;;;;5059382;28;20849;-77
2023/03/08 11:05:52;;;;;;;1999.90;999.90;;;5.50;99.90;;;;;;5057340;28;20127;-79
2023/03/08 11:08:21;;;;;;;1999.90;999.90;;;5.50;99.90;;;;;;5058009;28;20087;-78
2023/03/08 11:10:46;;;;;;;1999.90;999.90;;;5.60;99.90;;;;;;5057675;28;20068;-76
2023/03/08 11:13:25;;;;;;;1999.90;999.90;;;5.70;99.90;;;;;;5057274;28;20164;-76
2023/03/08 11:16:21;;;;;;;1999.90;999.90;;;5.80;99.90;;;;;;5057358;28;20057;-76
2023/03/08 11:19:02;;;;;;;1999.90;999.90;;;5.90;99.90;;;;;;5051505;28;20488;-76
2023/03/08 11:21:39;;;;;;;1999.90;999.90;;;6.10;99.90;;;;;;5057278;28;20120;-76
2023/03/08 11:24:31;;;;;;;1999.90;999.90;;;6.10;99.90;;;;;;5056965;28;20025;-75
2023/03/08 11:27:13;;;;;;;1999.90;999.90;;;6.00;99.90;;;;;;5055059;28;20045;-75
2023/03/08 11:30:05;;;;;;;1999.90;999.90;;;6.00;99.90;;;;;;5058051;28;20037;-79
2023/03/08 11:33:05;;;;;;;1999.90;999.90;;;6.10;99.90;;;;;;5056729;28;20048;-77
2023/03/08 11:35:51;;;;;;;1999.90;999.90;;;6.10;99.90;;;;;;5060646;28;20119;-80
2023/03/08 11:38:29;;;;;;;1999.90;999.90;;;6.10;99.90;;;;;;5061924;28;20577;-82
2023/03/08 11:41:19;;;;;;;1999.90;999.90;;;6.10;99.90;;;;;;5066790;28;20132;-80
2023/03/08 11:43:45;;;;;;;1999.90;999.90;;;6.30;99.90;;;;;;5064082;28;20088;-77
2023/03/08 11:46:24;;;;;;;1999.90;999.90;;;6.40;99.90;;;;;;5062549;28;20061;-80
2023/03/08 11:48:57;;;;;;;1999.90;999.90;;;6.70;99.90;;;;;;5057748;28;20645;-76
2023/03/08 11:51:37;;;;;;;1999.90;999.90;;;6.70;99.90;;;;;;5057252;28;20045;-77
2023/03/08 11:54:18;;;;;;;1999.90;999.90;;;7.10;99.90;;;;;;5056820;28;20041;-76
2023/03/08 11:56:49;;;;;;;1999.90;999.90;;;7.40;99.90;;;;;;5055597;28;20022;-76
2023/03/08 11:59:43;;;;;;;1999.90;999.90;;;7.40;99.90;;;;;;5055582;28;20506;-79
2023/03/08 12:02:12;;;;;;;1999.90;999.90;;;7.40;99.90;;;;;;5042888;28;20050;-76
2023/03/08 12:05:00;;;;;;;1999.90;999.90;;;7.40;99.90;;;;;;5056640;28;20033;-77
2023/03/08 12:07:38;;;;;;;1999.90;999.90;;;7.40;99.90;;;;;;5056453;28;20120;-75
2023/03/08 12:10:17;;;;;;;1999.90;999.90;;;7.40;99.90;;;;;;5057119;28;20040;-75
2023/03/08 12:12:52;;;;;;;1999.90;999.90;;;7.40;99.90;;;;;;5058645;28;20072;-76
2023/03/08 12:15:32;;;;;;;1999.90;999.90;;;7.40;99.90;;;;;;5056088;28;20038;-76
2023/03/08 12:18:11;;;;;;;1999.90;999.90;;;7.50;99.90;;;;;;5056297;28;20100;-76